sensor_id;sensor_type;location;lat;lon;timestamp;P1;durP1;ratioP1;P2;durP2;ratioP2
9447;SDS011;4762;48.128;11.376;2023-04-21T00:01:44;7.17;;;4.40;;
9447;SDS011;4762;48.128;11.376;2023-04-21T00:03:46;7.97;;;5.10;;
9447;SDS011;4762;48.128;11.376;2023-04-21T00:05:49;5.30;;;3.73;;
9447;SDS011;4762;48.128;11.376;2023-04-21T00:07:51;8.27;;;5.17;;
9447;SDS011;4762;48.128;11.376;2023-04-21T00:09:54;5.83;;;4.90;;
9447;SDS011;4762;48.128;11.376;2023-04-21T00:11:56;12.10;;;4.80;;
9447;SDS011;4762;48.128;11.376;2023-04-21T00:13:58;6.60;;;5.40;;
9447;SDS011;4762;48.128;11.376;2023-04-21T00:16:01;11.80;;;4.97;;
9447;SDS011;4762;48.128;11.376;2023-04-21T00:18:04;10.80;;;5.33;;
9447;SDS011;4762;48.128;11.376;2023-04-21T00:20:06;8.53;;;5.60;;
9447;SDS011;4762;48.128;11.376;2023-04-21T00:22:09;9.30;;;4.87;;
9447;SDS011;4762;48.128;11.376;2023-04-21T00:24:12;8.70;;;5.13;;
9447;SDS011;4762;48.128;11.376;2023-04-21T00:26:14;12.93;;;5.67;;
9447;SDS011;4762;48.128;11.376;2023-04-21T00:28:16;6.70;;;4.90;;
9447;SDS011;4762;48.128;11.376;2023-04-21T00:30:18;6.30;;;4.40;;
9447;SDS011;4762;48.128;11.376;2023-04-21T00:32:20;6.80;;;4.97;;
9447;SDS011;4762;48.128;11.376;2023-04-21T00:34:23;9.43;;;6.20;;
9447;SDS011;4762;48.128;11.376;2023-04-21T00:36:25;7.90;;;5.10;;
9447;SDS011;4762;48.128;11.376;2023-04-21T00:38:28;8.37;;;5.07;;
9447;SDS011;4762;48.128;11.376;2023-04-21T00:40:30;5.43;;;3.97;;
9447;SDS011;4762;48.128;11.376;2023-04-21T00:42:32;8.73;;;5.83;;
9447;SDS011;4762;48.128;11.376;2023-04-21T00:44:35;7.90;;;4.33;;
9447;SDS011;4762;48.128;11.376;2023-04-21T00:46:37;8.50;;;5.50;;
9447;SDS011;4762;48.128;11.376;2023-04-21T00:48:39;9.00;;;5.13;;
9447;SDS011;4762;48.128;11.376;2023-04-21T00:50:42;5.80;;;4.80;;
9447;SDS011;4762;48.128;11.376;2023-04-21T00:52:44;11.73;;;5.60;;
9447;SDS011;4762;48.128;11.376;2023-04-21T00:54:47;7.83;;;4.93;;
9447;SDS011;4762;48.128;11.376;2023-04-21T00:56:50;10.67;;;5.07;;
9447;SDS011;4762;48.128;11.376;2023-04-21T00:58:52;9.67;;;5.00;;
9447;SDS011;4762;48.128;11.376;2023-04-21T01:00:55;10.90;;;4.60;;
9447;SDS011;4762;48.128;11.376;2023-04-21T01:02:58;5.60;;;4.50;;
9447;SDS011;4762;48.128;11.376;2023-04-21T01:04:59;8.00;;;5.80;;
9447;SDS011;4762;48.128;11.376;2023-04-21T01:07:02;4.90;;;4.40;;
9447;SDS011;4762;48.128;11.376;2023-04-21T01:09:04;7.50;;;5.30;;
9447;SDS011;4762;48.128;11.376;2023-04-21T01:11:08;12.60;;;6.47;;
9447;SDS011;4762;48.128;11.376;2023-04-21T01:13:10;9.00;;;5.30;;
9447;SDS011;4762;48.128;11.376;2023-04-21T01:15:12;6.83;;;4.63;;
9447;SDS011;4762;48.128;11.376;2023-04-21T01:19:33;9.17;;;6.10;;
9447;SDS011;4762;48.128;11.376;2023-04-21T01:21:37;8.87;;;5.83;;
9447;SDS011;4762;48.128;11.376;2023-04-21T01:23:39;8.63;;;5.33;;
9447;SDS011;4762;48.128;11.376;2023-04-21T01:25:42;6.37;;;4.87;;
9447;SDS011;4762;48.128;11.376;2023-04-21T01:27:44;8.87;;;4.90;;
9447;SDS011;4762;48.128;11.376;2023-04-21T01:29:48;6.40;;;4.57;;
9447;SDS011;4762;48.128;11.376;2023-04-21T01:31:48;10.47;;;5.30;;
9447;SDS011;4762;48.128;11.376;2023-04-21T01:33:51;5.57;;;3.73;;
9447;SDS011;4762;48.128;11.376;2023-04-21T01:35:54;5.33;;;3.37;;
9447;SDS011;4762;48.128;11.376;2023-04-21T01:37:56;6.40;;;4.33;;
9447;SDS011;4762;48.128;11.376;2023-04-21T01:39:59;7.10;;;4.37;;
9447;SDS011;4762;48.128;11.376;2023-04-21T01:42:00;9.57;;;4.73;;
9447;SDS011;4762;48.128;11.376;2023-04-21T01:44:02;5.03;;;4.20;;
9447;SDS011;4762;48.128;11.376;2023-04-21T01:46:05;8.17;;;5.10;;
9447;SDS011;4762;48.128;11.376;2023-04-21T01:48:07;5.80;;;4.97;;
9447;SDS011;4762;48.128;11.376;2023-04-21T01:50:09;8.77;;;4.87;;
9447;SDS011;4762;48.128;11.376;2023-04-21T01:52:12;12.70;;;5.20;;
9447;SDS011;4762;48.128;11.376;2023-04-21T01:54:14;4.90;;;3.63;;
9447;SDS011;4762;48.128;11.376;2023-04-21T01:56:16;6.17;;;4.23;;
9447;SDS011;4762;48.128;11.376;2023-04-21T01:58:19;6.50;;;3.57;;
9447;SDS011;4762;48.128;11.376;2023-04-21T02:00:20;6.93;;;5.00;;
9447;SDS011;4762;48.128;11.376;2023-04-21T02:02:23;9.27;;;5.73;;
9447;SDS011;4762;48.128;11.376;2023-04-21T02:04:25;11.60;;;4.73;;
9447;SDS011;4762;48.128;11.376;2023-04-21T02:06:27;13.30;;;4.83;;
9447;SDS011;4762;48.128;11.376;2023-04-21T02:08:29;6.97;;;5.03;;
9447;SDS011;4762;48.128;11.376;2023-04-21T02:10:32;7.13;;;5.10;;
9447;SDS011;4762;48.128;11.376;2023-04-21T02:12:34;16.10;;;4.07;;
9447;SDS011;4762;48.128;11.376;2023-04-21T02:14:37;6.60;;;4.90;;
9447;SDS011;4762;48.128;11.376;2023-04-21T02:16:39;7.40;;;3.90;;
9447;SDS011;4762;48.128;11.376;2023-04-21T02:18:41;7.50;;;5.30;;
9447;SDS011;4762;48.128;11.376;2023-04-21T02:20:44;9.37;;;4.40;;
9447;SDS011;4762;48.128;11.376;2023-04-21T02:22:46;8.07;;;4.27;;
9447;SDS011;4762;48.128;11.376;2023-04-21T02:24:49;7.17;;;5.00;;
9447;SDS011;4762;48.128;11.376;2023-04-21T02:26:50;8.90;;;5.47;;
9447;SDS011;4762;48.128;11.376;2023-04-21T02:28:53;6.57;;;4.13;;
9447;SDS011;4762;48.128;11.376;2023-04-21T02:30:55;6.37;;;3.53;;
9447;SDS011;4762;48.128;11.376;2023-04-21T02:32:57;4.47;;;4.03;;
9447;SDS011;4762;48.128;11.376;2023-04-21T02:34:59;7.47;;;4.30;;
9447;SDS011;4762;48.128;11.376;2023-04-21T02:37:01;4.37;;;3.87;;
9447;SDS011;4762;48.128;11.376;2023-04-21T02:39:04;5.60;;;4.37;;
9447;SDS011;4762;48.128;11.376;2023-04-21T02:41:06;6.90;;;4.60;;
9447;SDS011;4762;48.128;11.376;2023-04-21T02:43:08;7.07;;;4.70;;
9447;SDS011;4762;48.128;11.376;2023-04-21T02:45:10;5.90;;;4.50;;
9447;SDS011;4762;48.128;11.376;2023-04-21T02:47:14;6.57;;;4.50;;
9447;SDS011;4762;48.128;11.376;2023-04-21T02:49:15;7.60;;;5.10;;
9447;SDS011;4762;48.128;11.376;2023-04-21T02:51:18;7.53;;;4.80;;
9447;SDS011;4762;48.128;11.376;2023-04-21T02:53:20;9.57;;;5.30;;
9447;SDS011;4762;48.128;11.376;2023-04-21T02:55:22;4.87;;;4.10;;
9447;SDS011;4762;48.128;11.376;2023-04-21T02:57:24;6.30;;;4.40;;
9447;SDS011;4762;48.128;11.376;2023-04-21T02:59:27;13.10;;;6.47;;
9447;SDS011;4762;48.128;11.376;2023-04-21T03:01:29;10.70;;;5.90;;
9447;SDS011;4762;48.128;11.376;2023-04-21T03:03:31;6.37;;;4.23;;
9447;SDS011;4762;48.128;11.376;2023-04-21T03:05:33;12.23;;;6.27;;
9447;SDS011;4762;48.128;11.376;2023-04-21T03:07:35;8.27;;;4.10;;
9447;SDS011;4762;48.128;11.376;2023-04-21T03:09:38;7.70;;;4.20;;
9447;SDS011;4762;48.128;11.376;2023-04-21T03:11:40;5.37;;;4.40;;
9447;SDS011;4762;48.128;11.376;2023-04-21T03:13:42;5.20;;;3.67;;
9447;SDS011;4762;48.128;11.376;2023-04-21T03:15:44;5.47;;;3.70;;
9447;SDS011;4762;48.128;11.376;2023-04-21T03:17:47;10.53;;;5.73;;
9447;SDS011;4762;48.128;11.376;2023-04-21T03:19:49;6.20;;;3.93;;
9447;SDS011;4762;48.128;11.376;2023-04-21T03:21:52;6.87;;;5.03;;
9447;SDS011;4762;48.128;11.376;2023-04-21T03:23:54;6.73;;;5.13;;
9447;SDS011;4762;48.128;11.376;2023-04-21T03:25:56;5.83;;;4.50;;
9447;SDS011;4762;48.128;11.376;2023-04-21T03:27:59;5.93;;;4.53;;
9447;SDS011;4762;48.128;11.376;2023-04-21T03:30:01;5.53;;;4.07;;
9447;SDS011;4762;48.128;11.376;2023-04-21T03:32:03;10.80;;;5.07;;
9447;SDS011;4762;48.128;11.376;2023-04-21T03:34:05;10.77;;;5.03;;
9447;SDS011;4762;48.128;11.376;2023-04-21T03:36:08;9.07;;;5.10;;
9447;SDS011;4762;48.128;11.376;2023-04-21T03:38:10;6.53;;;4.07;;
9447;SDS011;4762;48.128;11.376;2023-04-21T03:40:12;5.60;;;4.67;;
9447;SDS011;4762;48.128;11.376;2023-04-21T03:42:14;7.10;;;5.10;;
9447;SDS011;4762;48.128;11.376;2023-04-21T03:44:17;7.73;;;4.77;;
9447;SDS011;4762;48.128;11.376;2023-04-21T03:46:19;5.60;;;3.93;;
9447;SDS011;4762;48.128;11.376;2023-04-21T03:48:21;6.00;;;3.30;;
9447;SDS011;4762;48.128;11.376;2023-04-21T03:50:24;8.70;;;5.67;;
9447;SDS011;4762;48.128;11.376;2023-04-21T03:52:26;8.03;;;3.97;;
9447;SDS011;4762;48.128;11.376;2023-04-21T03:54:28;7.87;;;4.80;;
9447;SDS011;4762;48.128;11.376;2023-04-21T03:56:31;4.87;;;3.80;;
9447;SDS011;4762;48.128;11.376;2023-04-21T03:58:34;9.10;;;4.70;;
9447;SDS011;4762;48.128;11.376;2023-04-21T04:00:36;8.60;;;4.70;;
9447;SDS011;4762;48.128;11.376;2023-04-21T04:02:39;3.57;;;2.90;;
9447;SDS011;4762;48.128;11.376;2023-04-21T04:04:41;6.90;;;4.40;;
9447;SDS011;4762;48.128;11.376;2023-04-21T04:06:43;3.93;;;3.07;;
9447;SDS011;4762;48.128;11.376;2023-04-21T04:08:45;7.70;;;4.20;;
9447;SDS011;4762;48.128;11.376;2023-04-21T04:10:48;9.27;;;4.80;;
9447;SDS011;4762;48.128;11.376;2023-04-21T04:12:50;8.70;;;3.57;;
9447;SDS011;4762;48.128;11.376;2023-04-21T04:14:52;7.37;;;4.33;;
9447;SDS011;4762;48.128;11.376;2023-04-21T04:16:55;4.53;;;3.40;;
9447;SDS011;4762;48.128;11.376;2023-04-21T04:18:57;6.07;;;3.97;;
9447;SDS011;4762;48.128;11.376;2023-04-21T04:21:06;5.83;;;3.83;;
9447;SDS011;4762;48.128;11.376;2023-04-21T04:23:08;7.07;;;2.90;;
9447;SDS011;4762;48.128;11.376;2023-04-21T04:25:11;5.47;;;3.67;;
9447;SDS011;4762;48.128;11.376;2023-04-21T04:27:13;4.10;;;3.00;;
9447;SDS011;4762;48.128;11.376;2023-04-21T04:29:15;3.80;;;3.03;;
9447;SDS011;4762;48.128;11.376;2023-04-21T04:31:17;6.97;;;3.33;;
9447;SDS011;4762;48.128;11.376;2023-04-21T04:33:20;8.87;;;4.10;;
9447;SDS011;4762;48.128;11.376;2023-04-21T04:35:22;6.50;;;3.97;;
9447;SDS011;4762;48.128;11.376;2023-04-21T04:37:25;5.90;;;3.67;;
9447;SDS011;4762;48.128;11.376;2023-04-21T04:39:27;7.17;;;3.90;;
9447;SDS011;4762;48.128;11.376;2023-04-21T04:41:29;5.47;;;2.80;;
9447;SDS011;4762;48.128;11.376;2023-04-21T04:43:31;4.90;;;2.60;;
9447;SDS011;4762;48.128;11.376;2023-04-21T04:45:34;6.10;;;4.23;;
9447;SDS011;4762;48.128;11.376;2023-04-21T04:47:37;7.70;;;4.00;;
9447;SDS011;4762;48.128;11.376;2023-04-21T04:49:39;4.80;;;2.70;;
9447;SDS011;4762;48.128;11.376;2023-04-21T04:51:41;6.70;;;3.30;;
9447;SDS011;4762;48.128;11.376;2023-04-21T04:53:43;5.03;;;3.27;;
9447;SDS011;4762;48.128;11.376;2023-04-21T04:55:46;6.50;;;3.63;;
9447;SDS011;4762;48.128;11.376;2023-04-21T04:57:49;6.43;;;3.30;;
9447;SDS011;4762;48.128;11.376;2023-04-21T04:59:53;7.97;;;4.27;;
9447;SDS011;4762;48.128;11.376;2023-04-21T05:01:56;4.00;;;2.87;;
9447;SDS011;4762;48.128;11.376;2023-04-21T05:03:58;11.07;;;4.40;;
9447;SDS011;4762;48.128;11.376;2023-04-21T05:06:00;8.33;;;4.70;;
9447;SDS011;4762;48.128;11.376;2023-04-21T05:08:02;5.67;;;3.47;;
9447;SDS011;4762;48.128;11.376;2023-04-21T05:10:05;7.50;;;4.43;;
9447;SDS011;4762;48.128;11.376;2023-04-21T05:12:07;7.30;;;3.73;;
9447;SDS011;4762;48.128;11.376;2023-04-21T05:14:09;4.13;;;3.00;;
9447;SDS011;4762;48.128;11.376;2023-04-21T05:16:12;5.53;;;4.50;;
9447;SDS011;4762;48.128;11.376;2023-04-21T05:18:15;5.07;;;3.60;;
9447;SDS011;4762;48.128;11.376;2023-04-21T05:20:18;8.70;;;5.00;;
9447;SDS011;4762;48.128;11.376;2023-04-21T05:22:20;5.87;;;3.63;;
9447;SDS011;4762;48.128;11.376;2023-04-21T05:24:23;5.90;;;3.73;;
9447;SDS011;4762;48.128;11.376;2023-04-21T05:26:25;7.70;;;4.17;;
9447;SDS011;4762;48.128;11.376;2023-04-21T05:28:27;6.27;;;4.00;;
9447;SDS011;4762;48.128;11.376;2023-04-21T05:30:29;9.70;;;5.20;;
9447;SDS011;4762;48.128;11.376;2023-04-21T05:32:32;7.60;;;4.00;;
9447;SDS011;4762;48.128;11.376;2023-04-21T05:34:34;13.27;;;4.90;;
9447;SDS011;4762;48.128;11.376;2023-04-21T05:36:39;14.17;;;5.20;;
9447;SDS011;4762;48.128;11.376;2023-04-21T05:38:40;4.10;;;3.70;;
9447;SDS011;4762;48.128;11.376;2023-04-21T05:40:51;5.00;;;4.23;;
9447;SDS011;4762;48.128;11.376;2023-04-21T05:42:47;7.07;;;5.00;;
9447;SDS011;4762;48.128;11.376;2023-04-21T05:44:50;5.87;;;3.67;;
9447;SDS011;4762;48.128;11.376;2023-04-21T05:46:52;7.53;;;3.83;;
9447;SDS011;4762;48.128;11.376;2023-04-21T05:48:55;4.20;;;3.00;;
9447;SDS011;4762;48.128;11.376;2023-04-21T05:50:57;15.10;;;4.77;;
9447;SDS011;4762;48.128;11.376;2023-04-21T05:52:59;6.30;;;4.40;;
9447;SDS011;4762;48.128;11.376;2023-04-21T05:55:01;5.20;;;4.60;;
9447;SDS011;4762;48.128;11.376;2023-04-21T05:57:04;6.97;;;4.97;;
9447;SDS011;4762;48.128;11.376;2023-04-21T05:59:06;6.00;;;4.60;;
9447;SDS011;4762;48.128;11.376;2023-04-21T06:01:08;8.23;;;5.50;;
9447;SDS011;4762;48.128;11.376;2023-04-21T06:03:11;7.67;;;6.67;;
9447;SDS011;4762;48.128;11.376;2023-04-21T06:07:32;7.27;;;4.60;;
9447;SDS011;4762;48.128;11.376;2023-04-21T06:09:35;12.53;;;6.50;;
9447;SDS011;4762;48.128;11.376;2023-04-21T06:11:37;11.60;;;6.53;;
9447;SDS011;4762;48.128;11.376;2023-04-21T06:13:39;11.50;;;6.50;;
9447;SDS011;4762;48.128;11.376;2023-04-21T06:15:41;11.60;;;5.83;;
9447;SDS011;4762;48.128;11.376;2023-04-21T06:17:43;7.27;;;5.67;;
9447;SDS011;4762;48.128;11.376;2023-04-21T06:19:46;13.90;;;6.70;;
9447;SDS011;4762;48.128;11.376;2023-04-21T06:21:48;7.10;;;5.57;;
9447;SDS011;4762;48.128;11.376;2023-04-21T06:23:51;7.60;;;5.73;;
9447;SDS011;4762;48.128;11.376;2023-04-21T06:25:58;9.50;;;5.80;;
9447;SDS011;4762;48.128;11.376;2023-04-21T06:28:02;10.20;;;6.87;;
9447;SDS011;4762;48.128;11.376;2023-04-21T06:30:04;6.23;;;5.63;;
9447;SDS011;4762;48.128;11.376;2023-04-21T06:32:08;7.90;;;5.83;;
9447;SDS011;4762;48.128;11.376;2023-04-21T06:34:09;9.47;;;6.80;;
9447;SDS011;4762;48.128;11.376;2023-04-21T06:36:12;10.43;;;6.53;;
9447;SDS011;4762;48.128;11.376;2023-04-21T06:38:15;12.50;;;5.77;;
9447;SDS011;4762;48.128;11.376;2023-04-21T06:42:28;12.43;;;6.10;;
9447;SDS011;4762;48.128;11.376;2023-04-21T06:44:30;8.83;;;5.97;;
9447;SDS011;4762;48.128;11.376;2023-04-21T06:46:32;4.80;;;4.30;;
9447;SDS011;4762;48.128;11.376;2023-04-21T06:48:35;8.33;;;5.60;;
9447;SDS011;4762;48.128;11.376;2023-04-21T06:50:38;7.73;;;6.17;;
9447;SDS011;4762;48.128;11.376;2023-04-21T06:52:40;7.40;;;5.47;;
9447;SDS011;4762;48.128;11.376;2023-04-21T06:54:42;6.33;;;5.10;;
9447;SDS011;4762;48.128;11.376;2023-04-21T06:56:44;7.00;;;5.30;;
9447;SDS011;4762;48.128;11.376;2023-04-21T06:58:46;6.40;;;5.20;;
9447;SDS011;4762;48.128;11.376;2023-04-21T07:00:49;6.93;;;4.50;;
9447;SDS011;4762;48.128;11.376;2023-04-21T07:02:51;8.20;;;4.83;;
9447;SDS011;4762;48.128;11.376;2023-04-21T07:04:53;8.90;;;5.00;;
9447;SDS011;4762;48.128;11.376;2023-04-21T07:06:55;7.33;;;5.20;;
9447;SDS011;4762;48.128;11.376;2023-04-21T07:08:58;5.50;;;4.73;;
9447;SDS011;4762;48.128;11.376;2023-04-21T07:11:00;13.73;;;5.20;;
9447;SDS011;4762;48.128;11.376;2023-04-21T07:13:02;9.03;;;4.80;;
9447;SDS011;4762;48.128;11.376;2023-04-21T07:15:05;7.00;;;5.43;;
9447;SDS011;4762;48.128;11.376;2023-04-21T07:17:07;7.93;;;5.13;;
9447;SDS011;4762;48.128;11.376;2023-04-21T07:19:10;8.37;;;6.40;;
9447;SDS011;4762;48.128;11.376;2023-04-21T07:21:12;9.30;;;5.40;;
9447;SDS011;4762;48.128;11.376;2023-04-21T07:23:14;9.20;;;6.20;;
9447;SDS011;4762;48.128;11.376;2023-04-21T07:25:16;8.47;;;5.77;;
9447;SDS011;4762;48.128;11.376;2023-04-21T07:27:19;14.57;;;4.67;;
9447;SDS011;4762;48.128;11.376;2023-04-21T07:29:22;10.47;;;5.50;;
9447;SDS011;4762;48.128;11.376;2023-04-21T07:31:24;5.80;;;4.23;;
9447;SDS011;4762;48.128;11.376;2023-04-21T07:33:26;8.23;;;5.03;;
9447;SDS011;4762;48.128;11.376;2023-04-21T07:35:28;8.90;;;4.07;;
9447;SDS011;4762;48.128;11.376;2023-04-21T07:37:31;6.00;;;4.00;;
9447;SDS011;4762;48.128;11.376;2023-04-21T07:39:33;9.50;;;6.90;;
9447;SDS011;4762;48.128;11.376;2023-04-21T07:41:35;7.63;;;5.10;;
9447;SDS011;4762;48.128;11.376;2023-04-21T07:43:38;5.10;;;3.47;;
9447;SDS011;4762;48.128;11.376;2023-04-21T07:45:39;5.37;;;3.67;;
9447;SDS011;4762;48.128;11.376;2023-04-21T07:47:42;8.33;;;4.30;;
9447;SDS011;4762;48.128;11.376;2023-04-21T07:49:44;5.83;;;3.77;;
9447;SDS011;4762;48.128;11.376;2023-04-21T07:51:46;5.70;;;4.40;;
9447;SDS011;4762;48.128;11.376;2023-04-21T07:53:48;8.50;;;3.70;;
9447;SDS011;4762;48.128;11.376;2023-04-21T07:55:51;6.57;;;4.40;;
9447;SDS011;4762;48.128;11.376;2023-04-21T07:57:53;5.60;;;4.20;;
9447;SDS011;4762;48.128;11.376;2023-04-21T07:59:55;6.20;;;4.20;;
9447;SDS011;4762;48.128;11.376;2023-04-21T08:01:57;6.43;;;3.80;;
9447;SDS011;4762;48.128;11.376;2023-04-21T08:03:59;6.70;;;4.77;;
9447;SDS011;4762;48.128;11.376;2023-04-21T08:06:02;3.70;;;3.33;;
9447;SDS011;4762;48.128;11.376;2023-04-21T08:08:06;8.43;;;4.57;;
9447;SDS011;4762;48.128;11.376;2023-04-21T08:10:15;7.23;;;4.20;;
9447;SDS011;4762;48.128;11.376;2023-04-21T08:12:18;5.10;;;3.63;;
9447;SDS011;4762;48.128;11.376;2023-04-21T08:14:21;6.57;;;3.70;;
9447;SDS011;4762;48.128;11.376;2023-04-21T08:16:23;5.93;;;4.13;;
9447;SDS011;4762;48.128;11.376;2023-04-21T08:18:25;5.47;;;4.63;;
9447;SDS011;4762;48.128;11.376;2023-04-21T08:20:27;6.80;;;4.93;;
9447;SDS011;4762;48.128;11.376;2023-04-21T08:22:29;8.13;;;5.37;;
9447;SDS011;4762;48.128;11.376;2023-04-21T08:24:32;8.30;;;4.00;;
9447;SDS011;4762;48.128;11.376;2023-04-21T08:26:34;7.53;;;4.17;;
9447;SDS011;4762;48.128;11.376;2023-04-21T08:28:36;6.83;;;5.13;;
9447;SDS011;4762;48.128;11.376;2023-04-21T08:30:40;9.67;;;4.47;;
9447;SDS011;4762;48.128;11.376;2023-04-21T08:32:43;8.37;;;4.57;;
9447;SDS011;4762;48.128;11.376;2023-04-21T08:34:45;8.33;;;5.40;;
9447;SDS011;4762;48.128;11.376;2023-04-21T08:36:47;10.40;;;6.23;;
9447;SDS011;4762;48.128;11.376;2023-04-21T08:38:49;6.60;;;5.00;;
9447;SDS011;4762;48.128;11.376;2023-04-21T08:40:52;6.00;;;4.50;;
9447;SDS011;4762;48.128;11.376;2023-04-21T08:42:54;7.90;;;5.70;;
9447;SDS011;4762;48.128;11.376;2023-04-21T08:44:57;6.17;;;4.77;;
9447;SDS011;4762;48.128;11.376;2023-04-21T08:46:59;8.57;;;4.60;;
9447;SDS011;4762;48.128;11.376;2023-04-21T08:49:02;6.77;;;5.57;;
9447;SDS011;4762;48.128;11.376;2023-04-21T08:51:06;6.73;;;4.47;;
9447;SDS011;4762;48.128;11.376;2023-04-21T08:53:09;9.97;;;4.70;;
9447;SDS011;4762;48.128;11.376;2023-04-21T08:55:11;5.53;;;3.80;;
9447;SDS011;4762;48.128;11.376;2023-04-21T08:57:14;7.40;;;5.00;;
9447;SDS011;4762;48.128;11.376;2023-04-21T08:59:16;5.60;;;4.07;;
9447;SDS011;4762;48.128;11.376;2023-04-21T09:01:18;6.57;;;4.60;;
9447;SDS011;4762;48.128;11.376;2023-04-21T09:03:21;9.47;;;3.73;;
9447;SDS011;4762;48.128;11.376;2023-04-21T09:05:24;5.73;;;3.90;;
9447;SDS011;4762;48.128;11.376;2023-04-21T09:07:29;5.43;;;3.60;;
9447;SDS011;4762;48.128;11.376;2023-04-21T09:09:31;4.93;;;3.10;;
9447;SDS011;4762;48.128;11.376;2023-04-21T09:11:33;4.27;;;2.70;;
9447;SDS011;4762;48.128;11.376;2023-04-21T09:13:36;5.83;;;3.30;;
9447;SDS011;4762;48.128;11.376;2023-04-21T09:15:39;5.40;;;3.33;;
9447;SDS011;4762;48.128;11.376;2023-04-21T09:17:40;3.57;;;2.57;;
9447;SDS011;4762;48.128;11.376;2023-04-21T09:19:42;6.70;;;2.60;;
9447;SDS011;4762;48.128;11.376;2023-04-21T09:21:45;5.83;;;3.50;;
9447;SDS011;4762;48.128;11.376;2023-04-21T09:23:48;6.93;;;4.10;;
9447;SDS011;4762;48.128;11.376;2023-04-21T09:25:49;6.27;;;3.57;;
9447;SDS011;4762;48.128;11.376;2023-04-21T09:27:52;9.70;;;4.20;;
9447;SDS011;4762;48.128;11.376;2023-04-21T09:29:54;6.03;;;3.60;;
9447;SDS011;4762;48.128;11.376;2023-04-21T09:31:57;6.60;;;4.10;;
9447;SDS011;4762;48.128;11.376;2023-04-21T09:33:59;3.80;;;2.97;;
9447;SDS011;4762;48.128;11.376;2023-04-21T09:36:01;5.60;;;4.07;;
9447;SDS011;4762;48.128;11.376;2023-04-21T09:38:08;6.17;;;3.63;;
9447;SDS011;4762;48.128;11.376;2023-04-21T09:40:06;4.57;;;3.10;;
9447;SDS011;4762;48.128;11.376;2023-04-21T09:42:11;4.73;;;2.83;;
9447;SDS011;4762;48.128;11.376;2023-04-21T09:44:13;12.70;;;4.63;;
9447;SDS011;4762;48.128;11.376;2023-04-21T09:46:15;3.63;;;2.53;;
9447;SDS011;4762;48.128;11.376;2023-04-21T09:48:17;4.27;;;3.03;;
9447;SDS011;4762;48.128;11.376;2023-04-21T09:50:20;5.83;;;3.90;;
9447;SDS011;4762;48.128;11.376;2023-04-21T09:52:22;5.07;;;3.13;;
9447;SDS011;4762;48.128;11.376;2023-04-21T09:54:32;3.07;;;2.47;;
9447;SDS011;4762;48.128;11.376;2023-04-21T09:56:36;4.30;;;3.03;;
9447;SDS011;4762;48.128;11.376;2023-04-21T09:58:43;5.80;;;3.60;;
9447;SDS011;4762;48.128;11.376;2023-04-21T10:00:45;4.83;;;2.90;;
9447;SDS011;4762;48.128;11.376;2023-04-21T10:02:50;5.93;;;2.83;;
9447;SDS011;4762;48.128;11.376;2023-04-21T10:04:49;5.80;;;3.63;;
9447;SDS011;4762;48.128;11.376;2023-04-21T10:06:52;8.60;;;3.20;;
9447;SDS011;4762;48.128;11.376;2023-04-21T10:08:54;6.10;;;3.40;;
9447;SDS011;4762;48.128;11.376;2023-04-21T10:10:58;4.57;;;2.53;;
9447;SDS011;4762;48.128;11.376;2023-04-21T10:13:00;8.83;;;3.13;;
9447;SDS011;4762;48.128;11.376;2023-04-21T10:15:03;3.63;;;2.67;;
9447;SDS011;4762;48.128;11.376;2023-04-21T10:17:06;4.83;;;2.90;;
9447;SDS011;4762;48.128;11.376;2023-04-21T10:21:21;4.90;;;3.47;;
9447;SDS011;4762;48.128;11.376;2023-04-21T10:23:26;3.20;;;1.93;;
9447;SDS011;4762;48.128;11.376;2023-04-21T10:25:28;5.90;;;3.13;;
9447;SDS011;4762;48.128;11.376;2023-04-21T10:27:30;9.30;;;3.10;;
9447;SDS011;4762;48.128;11.376;2023-04-21T10:29:32;28.70;;;3.07;;
9447;SDS011;4762;48.128;11.376;2023-04-21T10:31:35;6.87;;;3.20;;
9447;SDS011;4762;48.128;11.376;2023-04-21T10:33:59;4.50;;;2.67;;
9447;SDS011;4762;48.128;11.376;2023-04-21T10:36:01;6.10;;;3.20;;
9447;SDS011;4762;48.128;11.376;2023-04-21T10:38:05;5.40;;;2.43;;
9447;SDS011;4762;48.128;11.376;2023-04-21T10:40:05;3.60;;;2.07;;
9447;SDS011;4762;48.128;11.376;2023-04-21T10:42:18;3.70;;;2.03;;
9447;SDS011;4762;48.128;11.376;2023-04-21T10:44:21;4.27;;;1.57;;
9447;SDS011;4762;48.128;11.376;2023-04-21T10:46:37;3.93;;;1.80;;
9447;SDS011;4762;48.128;11.376;2023-04-21T10:48:41;3.97;;;2.07;;
9447;SDS011;4762;48.128;11.376;2023-04-21T10:50:43;5.23;;;3.27;;
9447;SDS011;4762;48.128;11.376;2023-04-21T10:53:18;4.60;;;2.90;;
9447;SDS011;4762;48.128;11.376;2023-04-21T10:55:08;4.33;;;2.33;;
9447;SDS011;4762;48.128;11.376;2023-04-21T10:57:12;3.83;;;2.23;;
9447;SDS011;4762;48.128;11.376;2023-04-21T10:59:14;5.50;;;3.03;;
9447;SDS011;4762;48.128;11.376;2023-04-21T11:01:17;4.23;;;3.03;;
9447;SDS011;4762;48.128;11.376;2023-04-21T11:03:21;6.03;;;2.27;;
9447;SDS011;4762;48.128;11.376;2023-04-21T11:05:26;5.30;;;2.80;;
9447;SDS011;4762;48.128;11.376;2023-04-21T11:07:35;4.97;;;2.57;;
9447;SDS011;4762;48.128;11.376;2023-04-21T11:09:40;3.40;;;2.23;;
9447;SDS011;4762;48.128;11.376;2023-04-21T11:11:42;6.63;;;3.50;;
9447;SDS011;4762;48.128;11.376;2023-04-21T11:13:45;5.30;;;2.77;;
9447;SDS011;4762;48.128;11.376;2023-04-21T11:18:13;3.80;;;2.10;;
9447;SDS011;4762;48.128;11.376;2023-04-21T11:20:15;9.17;;;2.60;;
9447;SDS011;4762;48.128;11.376;2023-04-21T11:22:18;4.50;;;2.70;;
9447;SDS011;4762;48.128;11.376;2023-04-21T11:24:21;4.00;;;2.80;;
9447;SDS011;4762;48.128;11.376;2023-04-21T11:26:30;4.73;;;2.70;;
9447;SDS011;4762;48.128;11.376;2023-04-21T11:28:34;4.90;;;2.50;;
9447;SDS011;4762;48.128;11.376;2023-04-21T11:30:37;4.30;;;2.60;;
9447;SDS011;4762;48.128;11.376;2023-04-21T11:32:41;5.70;;;3.40;;
9447;SDS011;4762;48.128;11.376;2023-04-21T11:34:42;5.27;;;2.90;;
9447;SDS011;4762;48.128;11.376;2023-04-21T11:36:46;4.67;;;2.67;;
9447;SDS011;4762;48.128;11.376;2023-04-21T11:38:48;5.27;;;3.10;;
9447;SDS011;4762;48.128;11.376;2023-04-21T11:40:51;5.97;;;3.10;;
9447;SDS011;4762;48.128;11.376;2023-04-21T11:42:53;7.23;;;3.70;;
9447;SDS011;4762;48.128;11.376;2023-04-21T11:44:56;6.03;;;3.30;;
9447;SDS011;4762;48.128;11.376;2023-04-21T11:46:58;6.13;;;3.73;;
9447;SDS011;4762;48.128;11.376;2023-04-21T11:49:01;5.87;;;4.03;;
9447;SDS011;4762;48.128;11.376;2023-04-21T11:51:03;6.60;;;3.50;;
9447;SDS011;4762;48.128;11.376;2023-04-21T11:53:06;5.50;;;2.70;;
9447;SDS011;4762;48.128;11.376;2023-04-21T11:55:11;4.83;;;3.47;;
9447;SDS011;4762;48.128;11.376;2023-04-21T11:57:12;8.83;;;4.73;;
9447;SDS011;4762;48.128;11.376;2023-04-21T11:59:16;6.50;;;3.73;;
9447;SDS011;4762;48.128;11.376;2023-04-21T12:01:18;5.60;;;2.63;;
9447;SDS011;4762;48.128;11.376;2023-04-21T12:03:20;10.60;;;4.43;;
9447;SDS011;4762;48.128;11.376;2023-04-21T12:05:22;7.17;;;3.43;;
9447;SDS011;4762;48.128;11.376;2023-04-21T12:07:25;5.10;;;3.10;;
9447;SDS011;4762;48.128;11.376;2023-04-21T12:09:27;6.30;;;4.00;;
9447;SDS011;4762;48.128;11.376;2023-04-21T12:11:32;4.77;;;2.80;;
9447;SDS011;4762;48.128;11.376;2023-04-21T12:13:38;5.50;;;3.43;;
9447;SDS011;4762;48.128;11.376;2023-04-21T12:15:38;5.50;;;3.70;;
9447;SDS011;4762;48.128;11.376;2023-04-21T12:17:43;6.90;;;3.63;;
9447;SDS011;4762;48.128;11.376;2023-04-21T12:19:45;4.83;;;3.27;;
9447;SDS011;4762;48.128;11.376;2023-04-21T12:21:51;5.33;;;2.60;;
9447;SDS011;4762;48.128;11.376;2023-04-21T12:23:49;5.93;;;3.43;;
9447;SDS011;4762;48.128;11.376;2023-04-21T12:25:51;5.07;;;3.20;;
9447;SDS011;4762;48.128;11.376;2023-04-21T12:27:56;5.17;;;2.87;;
9447;SDS011;4762;48.128;11.376;2023-04-21T12:29:58;5.70;;;3.00;;
9447;SDS011;4762;48.128;11.376;2023-04-21T12:32:00;11.33;;;4.10;;
9447;SDS011;4762;48.128;11.376;2023-04-21T12:34:02;6.33;;;4.30;;
9447;SDS011;4762;48.128;11.376;2023-04-21T12:36:04;5.87;;;3.67;;
9447;SDS011;4762;48.128;11.376;2023-04-21T12:38:07;7.23;;;3.47;;
9447;SDS011;4762;48.128;11.376;2023-04-21T12:40:09;11.80;;;3.90;;
9447;SDS011;4762;48.128;11.376;2023-04-21T12:42:11;7.37;;;3.93;;